Expedition — VJN3475 — position and weather

sailwx.info

Track history (hours):
 
Tides and Currents Weather Stations Pressure Air Temp Water Temp Dewpoint Dewpoint Depression Visibility Wind Speed Wind Dir Waves Ship Positions

Expedition

Last reported at 2018-Mar-30 01:05 UTC. Time now 2018-Apr-23 18:51 UTC.
Position N 18°08' W 063°22'.
Warning: this ship's position is 24 days out of date.

Length 11 m.

Type: Sailing vessel. MMSI: 503413600.

Date/timePositionNaut miles runAvg speedWind from/ knotsBaromVisibWave heightAir tempDewpointWater temp
2018-Mar-30 01:05N 18°08' W 063°22'3 5.9
2018-Mar-30 00:35N 18°07' W 063°19'1 5.5
2018-Mar-30 00:26N 18°06' W 063°19'3 5.2
2018-Mar-29 23:52N 18°05' W 063°16'2 5.2
2018-Mar-29 23:24N 18°04' W 063°13'6 5.5
2018-Mar-29 22:24N 18°02' W 063°08'2 4.2
2018-Mar-29 22:00N 18°02' W 063°06'0 0.4
2018-Mar-29 21:28N 18°02' W 063°06'0 0.0
2018-Mar-29 20:49N 18°02' W 063°06'0 0.0
2018-Mar-29 20:28N 18°02' W 063°06'1 1.1
2018-Mar-29 19:52N 18°02' W 063°05'1 1.1
2018-Mar-29 19:21N 18°03' W 063°06'0 0.3
2018-Mar-29 18:51N 18°03' W 063°06'0 0.0
2018-Mar-29 18:24N 18°03' W 063°06'0 0.0
2018-Mar-29 17:57N 18°03' W 063°06'0 0.0
2018-Mar-29 17:12N 18°03' W 063°06'0 0.0
2018-Mar-29 16:12N 18°03' W 063°06'0 0.0
2018-Mar-29 15:24N 18°03' W 063°06'0 0.0
2018-Mar-29 15:00N 18°03' W 063°06'0 0.0
2018-Mar-29 14:30N 18°03' W 063°06'0 0.0
2018-Mar-29 13:00N 18°03' W 063°06'0 0.0
2018-Mar-29 12:30N 18°03' W 063°06'0 0.0
2018-Mar-29 12:00N 18°03' W 063°06'0 0.0
2018-Mar-29 11:30N 18°03' W 063°06'0 0.0
2018-Mar-29 11:00N 18°03' W 063°06'0 0.0
2018-Mar-29 10:30N 18°03' W 063°06'0 0.0
2018-Mar-29 10:00N 18°03' W 063°06'0 0.0
2018-Mar-29 09:21N 18°03' W 063°06'0 0.0
2018-Mar-29 08:51N 18°03' W 063°06'0 0.0
2018-Mar-29 08:21N 18°03' W 063°06'0 0.0
2018-Mar-29 07:51N 18°03' W 063°06'0 0.0
2018-Mar-29 07:21N 18°03' W 063°06'0 0.0
2018-Mar-29 06:54N 18°03' W 063°06'0 0.0
2018-Mar-29 06:24N 18°03' W 063°06'0 0.0
2018-Mar-29 05:54N 18°03' W 063°06'0 0.0
2018-Mar-29 05:24N 18°03' W 063°06'0 0.0
2018-Mar-29 04:54N 18°03' W 063°06'0 0.0
2018-Mar-29 04:27N 18°03' W 063°06'0 0.0
2018-Mar-29 03:57N 18°03' W 063°06'0 0.0
2018-Mar-29 03:27N 18°03' W 063°06'0 0.0
2018-Mar-29 02:57N 18°03' W 063°06'0 0.0
2018-Mar-29 02:27N 18°03' W 063°06'0 0.0
2018-Mar-29 01:45N 18°03' W 063°06'0 0.0
2018-Mar-29 01:24N 18°03' W 063°06'0 0.0
2018-Mar-29 01:00N 18°03' W 063°06'0 0.0
2018-Mar-29 00:30N 18°03' W 063°06'0 0.0
2018-Mar-29 00:00N 18°03' W 063°06'0 0.0
2018-Mar-28 23:24N 18°03' W 063°06'0 0.0
2018-Mar-28 22:54N 18°03' W 063°06'0 0.0
2018-Mar-28 22:24N 18°03' W 063°06'0 0.0
2018-Mar-28 21:57N 18°03' W 063°06'0 0.0
2018-Mar-28 21:27N 18°03' W 063°06'0 0.0
2018-Mar-28 20:57N 18°03' W 063°06'0 0.0
2018-Mar-28 20:24N 18°03' W 063°06'0 0.3
2018-Mar-28 20:00N 18°03' W 063°06'0 0.2
2018-Mar-28 19:21N 18°03' W 063°06'0 0.0
2018-Mar-28 18:52N 18°03' W 063°06'0 0.0
2018-Mar-28 18:25N 18°03' W 063°06'0 0.0
2018-Mar-28 17:48N 18°03' W 063°06'0 0.0
2018-Mar-28 17:25N 18°03' W 063°06'0 0.0
2018-Mar-28 16:54N 18°03' W 063°06'0 0.0
2018-Mar-28 16:24N 18°03' W 063°06'0 0.0
2018-Mar-28 15:54N 18°03' W 063°06'0 0.0
2018-Mar-28 15:12N 18°03' W 063°06'0 0.0
2018-Mar-28 14:57N 18°03' W 063°06'0 0.0
2018-Mar-28 14:27N 18°03' W 063°06'0 0.0
2018-Mar-28 13:57N 18°03' W 063°06'0 0.0
2018-Mar-28 13:27N 18°03' W 063°06'0 0.0
2018-Mar-28 13:00N 18°03' W 063°06'0 0.0
2018-Mar-28 12:30N 18°03' W 063°06'0 0.0
2018-Mar-28 12:01N 18°03' W 063°06'0 0.0
2018-Mar-28 11:27N 18°03' W 063°06'0 0.0
2018-Mar-28 11:01N 18°03' W 063°06'0 0.0
2018-Mar-28 10:27N 18°03' W 063°06'0 0.0
2018-Mar-28 09:57N 18°03' W 063°06'0 0.0
2018-Mar-28 09:30N 18°03' W 063°06'0 0.0
2018-Mar-28 09:00N 18°03' W 063°06'0 0.0
2018-Mar-28 08:31N 18°03' W 063°06'0 0.0
2018-Mar-28 07:49N 18°03' W 063°06'0 0.0
2018-Mar-28 07:22N 18°03' W 063°06'0 0.0
2018-Mar-28 06:49N 18°03' W 063°06'0 0.0
2018-Mar-28 06:18N 18°03' W 063°06'0 0.0
2018-Mar-28 05:52N 18°03' W 063°06'0 0.0
2018-Mar-28 05:22N 18°03' W 063°06'0 0.0
2018-Mar-28 04:49N 18°03' W 063°06'0 0.0
2018-Mar-28 04:10N 18°03' W 063°06'0 0.0
2018-Mar-28 03:55N 18°03' W 063°06'0 0.0
2018-Mar-28 03:25N 18°03' W 063°06'0 0.0
2018-Mar-28 02:37N 18°03' W 063°06'0 0.0
2018-Mar-28 02:25N 18°03' W 063°06'0 0.0
2018-Mar-28 01:58N 18°03' W 063°06'0 0.0
2018-Mar-28 01:27N 18°03' W 063°06'0 0.0
2018-Mar-28 00:58N 18°03' W 063°06'0 0.0
2018-Mar-28 00:27N 18°03' W 063°06'0 0.0
2018-Mar-27 23:58N 18°03' W 063°06'0 0.0
2018-Mar-27 23:27N 18°03' W 063°06'0 0.0
2018-Mar-27 22:57N 18°03' W 063°06'0 0.0
2018-Mar-27 22:30N 18°03' W 063°06'0 0.0
2018-Mar-27 22:00N 18°03' W 063°06'0 0.0
2018-Mar-27 21:30N 18°03' W 063°06'0 0.0
2018-Mar-27 20:57N 18°03' W 063°06'0 0.0
2018-Mar-27 20:28N 18°03' W 063°06'0 0.0
2018-Mar-27 19:57N 18°03' W 063°06'0 0.0
2018-Mar-27 19:18N 18°03' W 063°06'0 0.0
2018-Mar-27 19:00N 18°03' W 063°06'0 0.0
2018-Mar-27 18:19N 18°03' W 063°06'0 0.0
2018-Mar-27 17:49N 18°03' W 063°06'0 0.0
2018-Mar-27 17:30N 18°03' W 063°06'0 0.0
2018-Mar-27 16:51N 18°03' W 063°06'0 0.0
2018-Mar-27 16:21N 18°03' W 063°06'0 0.0
2018-Mar-27 15:51N 18°03' W 063°06'0 0.0
2018-Mar-27 15:25N 18°03' W 063°06'0 0.0
2018-Mar-27 14:54N 18°03' W 063°06'0 0.0
2018-Mar-27 14:25N 18°03' W 063°06'0 0.0
2018-Mar-27 13:54N 18°03' W 063°06'0 0.0
2018-Mar-27 13:25N 18°03' W 063°06'0 0.0
2018-Mar-27 12:55N 18°03' W 063°06'0 0.0
2018-Mar-27 12:25N 18°03' W 063°06'0 0.0
2018-Mar-27 11:57N 18°03' W 063°06'0 0.0
2018-Mar-27 11:25N 18°03' W 063°06'0 0.0
2018-Mar-27 10:57N 18°03' W 063°06'0 0.0
2018-Mar-27 10:25N 18°03' W 063°06'0 0.0
2018-Mar-27 09:43N 18°03' W 063°06'0 0.0
2018-Mar-27 09:28N 18°03' W 063°06'0 0.0
2018-Mar-27 09:00N 18°03' W 063°06'0 0.0
2018-Mar-27 08:28N 18°03' W 063°06'0 0.0
2018-Mar-27 07:58N 18°03' W 063°06'0 0.0
2018-Mar-27 07:27N 18°03' W 063°06'0 0.0
2018-Mar-27 06:46N 18°03' W 063°06'0 0.0
2018-Mar-27 06:30N 18°03' W 063°06'0 0.0
2018-Mar-27 05:49N 18°03' W 063°06'0 0.0
2018-Mar-27 05:19N 18°03' W 063°06'0 0.0
2018-Mar-27 05:00N 18°03' W 063°06'0 0.0
2018-Mar-27 04:18N 18°03' W 063°06'0 0.0
2018-Mar-27 04:00N 18°03' W 063°06'0 0.0
2018-Mar-27 03:18N 18°03' W 063°06'0 0.0
2018-Mar-27 02:51N 18°03' W 063°06'0 0.0
2018-Mar-27 02:21N 18°03' W 063°06'0 0.0
2018-Mar-27 01:55N 18°03' W 063°06'0 0.0
2018-Mar-27 01:25N 18°03' W 063°06'0 0.0
2018-Mar-27 00:55N 18°03' W 063°06'0 0.0
2018-Mar-27 00:24N 18°03' W 063°06'0 0.0
2018-Mar-26 23:55N 18°03' W 063°06'0 0.0
2018-Mar-26 23:24N 18°03' W 063°06'0 0.0
2018-Mar-26 22:55N 18°03' W 063°06'0 0.0
2018-Mar-26 22:28N 18°03' W 063°06'0 0.0
2018-Mar-26 21:58N 18°03' W 063°06'0 0.0
2018-Mar-26 21:25N 18°03' W 063°06'0 0.0
2018-Mar-26 20:43N 18°03' W 063°06'0 0.0
2018-Mar-26 20:28N 18°03' W 063°06'0 0.0
2018-Mar-26 19:55N 18°03' W 063°06'0 0.0
2018-Mar-26 19:01N 18°03' W 063°06'0 0.0
2018-Mar-26 18:46N 18°03' W 063°06'0 0.0
2018-Mar-26 18:28N 18°03' W 063°06'0 0.0
2018-Mar-26 17:49N 18°03' W 063°06'0 0.0
2018-Mar-26 17:27N 18°03' W 063°06'0 0.0
2018-Mar-26 16:58N 18°03' W 063°06'0 0.0
2018-Mar-26 16:31N 18°03' W 063°06'0 0.0
2018-Mar-26 15:49N 18°03' W 063°06'0 0.0
2018-Mar-26 15:19N 18°03' W 063°06'0 0.0
2018-Mar-26 14:49N 18°03' W 063°06'0 0.0
2018-Mar-26 14:30N 18°03' W 063°06'0 0.0
2018-Mar-26 13:37N 18°03' W 063°06'0 0.0
2018-Mar-26 13:19N 18°03' W 063°06'0 0.0
2018-Mar-26 12:52N 18°03' W 063°06'0 0.0
2018-Mar-26 12:25N 18°03' W 063°06'0 0.0
2018-Mar-26 11:39N 18°03' W 063°06'0 0.0
2018-Mar-26 11:25N 18°03' W 063°06'0 0.0
2018-Mar-26 10:55N 18°03' W 063°06'0 0.0
2018-Mar-26 10:21N 18°03' W 063°06'0 0.0
2018-Mar-26 09:55N 18°03' W 063°06'0 0.0
2018-Mar-26 09:24N 18°03' W 063°06'0 0.0
2018-Mar-26 08:55N 18°03' W 063°06'0 0.0
2018-Mar-26 08:25N 18°03' W 063°06'0 0.0
2018-Mar-26 07:55N 18°03' W 063°06'0 0.0
2018-Mar-26 07:25N 18°03' W 063°06'0 0.0
2018-Mar-26 06:55N 18°03' W 063°06'0 0.0
2018-Mar-26 06:28N 18°03' W 063°06'0 0.0
2018-Mar-26 05:54N 18°03' W 063°06'0 0.0
2018-Mar-26 05:27N 18°03' W 063°06'0 0.0
2018-Mar-26 04:43N 18°03' W 063°06'0 0.0
2018-Mar-26 04:30N 18°03' W 063°06'0 0.0
2018-Mar-26 03:48N 18°03' W 063°06'0 0.0
2018-Mar-26 03:28N 18°03' W 063°06'0 0.0
2018-Mar-26 02:49N 18°03' W 063°06'0 0.0
2018-Mar-26 02:18N 18°03' W 063°06'0 0.0
2018-Mar-26 01:49N 18°03' W 063°06'0 0.0
2018-Mar-26 01:16N 18°03' W 063°06'0 0.0
2018-Mar-26 00:52N 18°03' W 063°06'0 0.0
2018-Mar-26 00:30N 18°03' W 063°06'0 0.0
2018-Mar-25 23:52N 18°03' W 063°06'0 0.0
2018-Mar-25 23:19N 18°03' W 063°06'0 0.0
2018-Mar-25 22:51N 18°03' W 063°06'0 0.0
2018-Mar-25 22:25N 18°03' W 063°06'0 0.0
2018-Mar-25 21:55N 18°03' W 063°06'0 0.0
2018-Mar-25 21:25N 18°03' W 063°06'0 0.0
2018-Mar-25 19:54N 18°03' W 063°06'0 0.0
2018-Mar-25 19:28N 18°03' W 063°06'0 0.0
2018-Mar-25 18:58N 18°03' W 063°06'0 0.0
2018-Mar-25 18:25N 18°03' W 063°06'0 0.0
2018-Mar-25 17:55N 18°03' W 063°06'0 0.0
2018-Mar-25 17:25N 18°03' W 063°06'0 0.0
2018-Mar-25 17:01N 18°03' W 063°06'0 0.0
2018-Mar-25 16:25N 18°03' W 063°06'0 0.0
2018-Mar-25 15:46N 18°03' W 063°06'0 0.0
2018-Mar-25 15:13N 18°03' W 063°06'0 0.0
2018-Mar-25 14:45N 18°03' W 063°06'0 0.0
2018-Mar-25 14:18N 18°03' W 063°06'0 0.0
2018-Mar-25 13:58N 18°03' W 063°06'0 0.0
2018-Mar-25 13:28N 18°03' W 063°06'0 0.0
2018-Mar-25 13:01N 18°03' W 063°06'0 0.0
2018-Mar-25 12:30N 18°03' W 063°06'0 0.0
2018-Mar-25 12:00N 18°03' W 063°06'0 0.0
2018-Mar-25 11:19N 18°03' W 063°06'0 0.0
2018-Mar-25 10:49N 18°03' W 063°06'0 0.0
2018-Mar-25 10:22N 18°03' W 063°06'0 0.0
2018-Mar-25 09:51N 18°03' W 063°06'0 0.0
2018-Mar-25 09:21N 18°03' W 063°06'0 0.0
2018-Mar-25 08:54N 18°03' W 063°06'0 0.0
2018-Mar-25 08:25N 18°03' W 063°06'0 0.0
2018-Mar-25 07:54N 18°03' W 063°06'0 0.0
2018-Mar-25 07:22N 18°03' W 063°06'0 0.0
2018-Mar-25 06:55N 18°03' W 063°06'0 0.0
2018-Mar-25 06:25N 18°03' W 063°06'0 0.0
2018-Mar-25 05:58N 18°03' W 063°06'0 0.0
2018-Mar-25 05:21N 18°03' W 063°06'0 0.0
2018-Mar-25 04:57N 18°03' W 063°06'0 0.0
2018-Mar-25 04:24N 18°03' W 063°06'0 0.0
2018-Mar-25 03:55N 18°03' W 063°06'0 0.0
2018-Mar-25 03:31N 18°03' W 063°06'0 0.0
2018-Mar-25 03:00N 18°03' W 063°06'0 0.0
2018-Mar-25 02:28N 18°03' W 063°06'0 0.0
2018-Mar-25 01:58N 18°03' W 063°06'0 0.0
2018-Mar-25 01:12N 18°03' W 063°06'0 0.0
2018-Mar-25 00:46N 18°03' W 063°06'0 0.0
2018-Mar-25 00:18N 18°03' W 063°06'0 0.0
2018-Mar-25 00:01N 18°03' W 063°06'0 0.0
2018-Mar-24 23:19N 18°03' W 063°06'0 0.0
2018-Mar-24 22:49N 18°03' W 063°06'0 0.0
2018-Mar-24 22:22N 18°03' W 063°06'0 0.0
2018-Mar-24 22:01N 18°03' W 063°06'0 0.0
2018-Mar-24 21:19N 18°03' W 063°06'0 0.0
2018-Mar-24 20:36N 18°03' W 063°06'0 0.0
2018-Mar-24 20:22N 18°03' W 063°06'0 0.0
2018-Mar-24 19:52N 18°03' W 063°06'0 0.0
2018-Mar-24 19:25N 18°03' W 063°06'0 0.0
2018-Mar-24 18:54N 18°03' W 063°06'0 0.0
2018-Mar-24 18:25N 18°03' W 063°06'0 0.0
2018-Mar-24 17:55N 18°03' W 063°06'0 0.0
2018-Mar-24 17:25N 18°03' W 063°06'0 0.0
2018-Mar-24 16:55N 18°03' W 063°06'0 0.0
2018-Mar-24 16:25N 18°03' W 063°06'0 0.0
2018-Mar-24 15:54N 18°03' W 063°06'0 0.0
2018-Mar-24 15:27N 18°03' W 063°06'0 0.0
2018-Mar-24 14:58N 18°03' W 063°06'0 0.0
2018-Mar-24 14:25N 18°03' W 063°06'0 0.0
2018-Mar-24 13:58N 18°03' W 063°06'0 0.0
2018-Mar-24 13:31N 18°03' W 063°06'0 0.0
2018-Mar-24 13:00N 18°03' W 063°06'0 0.0
2018-Mar-24 12:12N 18°03' W 063°06'0 0.0
2018-Mar-24 12:00N 18°03' W 063°06'0 0.0
2018-Mar-24 11:28N 18°03' W 063°06'0 0.0
2018-Mar-24 10:58N 18°03' W 063°06'0 0.0
2018-Mar-24 10:31N 18°03' W 063°06'0 0.0
2018-Mar-24 09:49N 18°03' W 063°06'0 0.0
2018-Mar-24 09:19N 18°03' W 063°06'0 0.0
2018-Mar-24 08:48N 18°03' W 063°06'0 0.0
2018-Mar-24 08:30N 18°03' W 063°06'0 0.0
2018-Mar-24 08:00N 18°03' W 063°06'0 0.0
2018-Mar-24 07:30N 18°03' W 063°06'0 0.0
2018-Mar-24 06:49N 18°03' W 063°06'0 0.0
2018-Mar-24 06:19N 18°03' W 063°06'0 0.0
2018-Mar-24 05:52N 18°03' W 063°06'0 0.0
2018-Mar-24 05:25N 18°03' W 063°06'0 0.0
2018-Mar-24 04:55N 18°03' W 063°06'0 0.0
2018-Mar-24 04:25N 18°03' W 063°06'0 0.0
2018-Mar-24 03:55N 18°03' W 063°06'0 0.0
2018-Mar-24 03:25N 18°03' W 063°06'0 0.0
2018-Mar-24 02:58N 18°03' W 063°06'0 0.0
2018-Mar-24 02:27N 18°03' W 063°06'0 0.0
2018-Mar-24 01:55N 18°03' W 063°06'0 0.0
2018-Mar-24 01:27N 18°03' W 063°06'0 0.0
2018-Mar-24 00:58N 18°03' W 063°06'0 0.0
2018-Mar-24 00:31N 18°03' W 063°06'0 0.0
2018-Mar-23 23:58N 18°03' W 063°06'0 0.0
2018-Mar-23 23:13N 18°03' W 063°06'0 0.0
2018-Mar-23 23:00N 18°03' W 063°06'0 0.0
2018-Mar-23 22:13N 18°03' W 063°06'0 0.0
2018-Mar-23 22:00N 18°03' W 063°06'0 0.0
2018-Mar-23 21:19N 18°03' W 063°06'0 0.0
2018-Mar-23 21:00N 18°03' W 063°06'0 0.0
2018-Mar-23 20:19N 18°03' W 063°06'0 0.0
2018-Mar-23 19:49N 18°03' W 063°06'0 0.0
2018-Mar-23 19:19N 18°03' W 063°06'0 0.0
2018-Mar-23 19:00N 18°03' W 063°06'0 0.0
2018-Mar-23 18:19N 18°03' W 063°06'0 0.0
2018-Mar-23 17:49N 18°03' W 063°06'0 0.0
2018-Mar-23 17:22N 18°03' W 063°06'0 0.0
2018-Mar-23 16:51N 18°03' W 063°06'0 0.0
2018-Mar-23 16:22N 18°03' W 063°06'0 0.0
2018-Mar-23 15:55N 18°03' W 063°06'0 0.0
2018-Mar-23 15:25N 18°03' W 063°06'0 0.0
2018-Mar-23 14:55N 18°03' W 063°06'0 0.0
2018-Mar-23 14:25N 18°03' W 063°06'0 0.0
2018-Mar-23 13:55N 18°03' W 063°06'0 0.0
2018-Mar-23 13:25N 18°03' W 063°06'0 0.0
2018-Mar-23 12:58N 18°03' W 063°06'0 0.0
2018-Mar-23 12:25N 18°03' W 063°06'0 0.0
2018-Mar-23 11:58N 18°03' W 063°06'0 0.0
2018-Mar-23 11:28N 18°03' W 063°06'0 0.0
2018-Mar-23 10:57N 18°03' W 063°06'0 0.0
2018-Mar-23 10:12N 18°03' W 063°06'0 0.0
2018-Mar-23 10:01N 18°03' W 063°06'0 0.0
2018-Mar-23 09:28N 18°03' W 063°06'0 0.0
2018-Mar-23 08:31N 18°03' W 063°06'0 0.1
2018-Mar-23 08:28N 18°03' W 063°06'0 0.0
2018-Mar-23 07:58N 18°03' W 063°06'0 0.0
2018-Mar-23 07:30N 18°03' W 063°06'0 0.0
2018-Mar-23 06:46N 18°03' W 063°06'0 0.0
2018-Mar-23 06:18N 18°03' W 063°06'0 0.0
2018-Mar-23 05:49N 18°03' W 063°06'0 0.0
2018-Mar-23 05:19N 18°03' W 063°06'0 0.0
2018-Mar-23 05:00N 18°03' W 063°06'0 0.0
2018-Mar-23 04:22N 18°03' W 063°06'0 0.0
2018-Mar-23 03:49N 18°03' W 063°06'0 0.0
2018-Mar-23 03:22N 18°03' W 063°06'0 0.0
2018-Mar-23 02:48N 18°03' W 063°06'0 0.0
2018-Mar-23 02:09N 18°03' W 063°06'0 0.0
2018-Mar-23 01:48N 18°03' W 063°06'0 0.0
2018-Mar-23 01:25N 18°03' W 063°06'0 0.0
2018-Mar-23 00:55N 18°03' W 063°06'0 0.0
2018-Mar-23 00:25N 18°03' W 063°06'0 0.0
2018-Mar-22 23:54N 18°03' W 063°06'0 0.0
2018-Mar-22 23:24N 18°03' W 063°06'0 0.0
2018-Mar-22 22:57N 18°03' W 063°06'0 0.0
2018-Mar-22 22:28N 18°03' W 063°06'0 0.0
2018-Mar-22 21:58N 18°03' W 063°06'0 0.0
2018-Mar-22 21:27N 18°03' W 063°06'0 0.0
2018-Mar-22 20:54N 18°03' W 063°06'0 0.0
2018-Mar-22 20:24N 18°03' W 063°06'0 0.0
2018-Mar-22 20:00N 18°03' W 063°06'0 0.0
2018-Mar-22 19:12N 18°03' W 063°06'0 0.0
2018-Mar-22 18:43N 18°03' W 063°06'0 0.0
2018-Mar-22 18:28N 18°03' W 063°06'0 0.0
2018-Mar-22 17:58N 18°03' W 063°06'0 0.0
2018-Mar-22 17:31N 18°03' W 063°06'0 0.0
2018-Mar-22 16:49N 18°03' W 063°06'0 0.0
2018-Mar-22 16:19N 18°03' W 063°06'0 0.0
2018-Mar-22 16:00N 18°03' W 063°06'0 0.0
2018-Mar-22 15:31N 18°03' W 063°06'0 0.0
2018-Mar-22 15:00N 18°03' W 063°06'0 0.0
2018-Mar-22 14:22N 18°03' W 063°06'0 0.0
2018-Mar-22 13:49N 18°03' W 063°06'0 0.0
2018-Mar-22 13:22N 18°03' W 063°06'0 0.0
2018-Mar-22 12:54N 18°03' W 063°06'0 0.0
2018-Mar-22 12:25N 18°03' W 063°06'0 0.0
2018-Mar-22 11:55N 18°03' W 063°06'0 0.0
2018-Mar-22 11:25N 18°03' W 063°06'0 0.0
2018-Mar-22 10:55N 18°03' W 063°06'0 0.0
2018-Mar-22 10:25N 18°03' W 063°06'0 0.0
2018-Mar-22 09:58N 18°03' W 063°06'0 0.0
2018-Mar-22 09:28N 18°03' W 063°06'0 0.0
2018-Mar-22 08:58N 18°03' W 063°06'0 0.0
2018-Mar-22 08:13N 18°03' W 063°06'0 0.0
2018-Mar-22 07:57N 18°03' W 063°06'0 0.0
2018-Mar-22 07:28N 18°03' W 063°06'0 0.0
2018-Mar-22 06:58N 18°03' W 063°06'0 0.0
2018-Mar-22 06:30N 18°03' W 063°06'0 0.0
2018-Mar-22 06:00N 18°03' W 063°06'0 0.0
2018-Mar-22 05:27N 18°03' W 063°06'0 0.0
2018-Mar-22 04:58N 18°03' W 063°06'0 0.0
2018-Mar-22 04:30N 18°03' W 063°06'0 0.0
2018-Mar-22 03:58N 18°03' W 063°06'0 0.0
2018-Mar-22 03:31N 18°03' W 063°06'0 0.0
2018-Mar-22 03:00N 18°03' W 063°06'0 0.0
2018-Mar-22 02:18N 18°03' W 063°06'0 0.0
2018-Mar-22 02:00N 18°03' W 063°06'0 0.0
2018-Mar-22 01:18N 18°03' W 063°06'0 0.0
2018-Mar-22 00:51N 18°03' W 063°06'0 0.0
2018-Mar-22 00:06N 18°03' W 063°06'0 0.0
2018-Mar-21 23:52N 18°03' W 063°06'0 0.0
2018-Mar-21 23:18N 18°03' W 063°06'0 0.0
2018-Mar-21 22:54N 18°03' W 063°06'0 0.0
2018-Mar-21 00:00N 18°03' W 063°06'0 0.0
2018-Mar-20 23:30N 18°03' W 063°06'0 0.0
2018-Mar-20 22:51N 18°03' W 063°06'0 0.0
2018-Mar-20 22:18N 18°03' W 063°06'0 0.0
2018-Mar-20 21:54N 18°03' W 063°06'0 0.0
2018-Mar-20 21:18N 18°03' W 063°06'0 0.0
2018-Mar-20 20:54N 18°03' W 063°06'0 0.0
2018-Mar-20 20:24N 18°03' W 063°06'0 0.0
2018-Mar-20 19:54N 18°03' W 063°06'0 0.0
2018-Mar-20 19:24N 18°03' W 063°06'0 0.0
2018-Mar-20 18:42N 18°03' W 063°06'0 0.0
2018-Mar-20 18:24N 18°03' W 063°06'0 0.0
2018-Mar-20 17:42N 18°03' W 063°06'0 0.0
2018-Mar-20 17:27N 18°03' W 063°06'0 0.0
2018-Mar-20 16:54N 18°03' W 063°06'0 0.0
2018-Mar-20 16:30N 18°03' W 063°06'0 0.0
2018-Mar-20 16:00N 18°03' W 063°06'0 0.0
2018-Mar-20 15:30N 18°03' W 063°06'0 0.0
2018-Mar-20 14:42N 18°03' W 063°06'0 0.0
2018-Mar-20 14:15N 18°03' W 063°06'0 0.0
2018-Mar-20 14:00N 18°03' W 063°06'0 0.0
2018-Mar-20 13:30N 18°03' W 063°06'0 0.0
2018-Mar-20 13:00N 18°03' W 063°06'0 0.0
2018-Mar-20 12:30N 18°03' W 063°06'0 0.0
2018-Mar-20 12:00N 18°03' W 063°06'0 0.0
2018-Mar-20 11:18N 18°03' W 063°06'0 0.0
2018-Mar-20 11:00N 18°03' W 063°06'0 0.0
2018-Mar-20 10:30N 18°03' W 063°06'0 0.0
2018-Mar-20 09:48N 18°03' W 063°06'0 0.0
2018-Mar-20 09:03N 18°03' W 063°06'0 0.0
2018-Mar-20 08:48N 18°03' W 063°06'0 0.0
2018-Mar-20 08:21N 18°03' W 063°06'0 0.0
2018-Mar-20 07:54N 18°03' W 063°06'0 0.0
2018-Mar-20 07:24N 18°03' W 063°06'0 0.0
2018-Mar-20 06:54N 18°03' W 063°06'0 0.0
2018-Mar-20 06:24N 18°03' W 063°06'0 0.0
2018-Mar-20 05:57N 18°03' W 063°06'0 0.0
2018-Mar-20 05:27N 18°03' W 063°06'0 0.0
2018-Mar-20 04:54N 18°03' W 063°06'0 0.0
2018-Mar-20 04:27N 18°03' W 063°06'0 0.0
2018-Mar-20 03:54N 18°03' W 063°06'0 0.0
2018-Mar-20 03:27N 18°03' W 063°06'0 0.0
2018-Mar-20 03:00N 18°03' W 063°06'0 0.0
2018-Mar-20 02:30N 18°03' W 063°06'0 0.0
2018-Mar-20 02:00N 18°03' W 063°06'0 0.0
2018-Mar-20 01:30N 18°03' W 063°06'  
Track history (hours):
 
Tides and Currents Weather Stations Pressure Air Temp Water Temp Dewpoint Dewpoint Depression Visibility Wind Speed Wind Dir Waves Ship Positions

Expedition

Last reported at 2018-Mar-30 01:05 UTC. Time now 2018-Apr-23 18:51 UTC.
Position N 18°08' W 063°22'.
Warning: this ship's position is 24 days out of date.

Length 11 m.

Type: Sailing vessel. MMSI: 503413600.

Date/timePositionNaut miles runAvg speedWind from/ knotsBaromVisibWave heightAir tempDewpointWater temp
2018-Mar-30 01:05N 18°08' W 063°22'3 5.9
2018-Mar-30 00:35N 18°07' W 063°19'1 5.5
2018-Mar-30 00:26N 18°06' W 063°19'3 5.2
2018-Mar-29 23:52N 18°05' W 063°16'2 5.2
2018-Mar-29 23:24N 18°04' W 063°13'6 5.5
2018-Mar-29 22:24N 18°02' W 063°08'2 4.2
2018-Mar-29 22:00N 18°02' W 063°06'0 0.4
2018-Mar-29 21:28N 18°02' W 063°06'0 0.0
2018-Mar-29 20:49N 18°02' W 063°06'0 0.0
2018-Mar-29 20:28N 18°02' W 063°06'1 1.1
2018-Mar-29 19:52N 18°02' W 063°05'1 1.1
2018-Mar-29 19:21N 18°03' W 063°06'0 0.3
2018-Mar-29 18:51N 18°03' W 063°06'0 0.0
2018-Mar-29 18:24N 18°03' W 063°06'0 0.0
2018-Mar-29 17:57N 18°03' W 063°06'0 0.0
2018-Mar-29 17:12N 18°03' W 063°06'0 0.0
2018-Mar-29 16:12N 18°03' W 063°06'0 0.0
2018-Mar-29 15:24N 18°03' W 063°06'0 0.0
2018-Mar-29 15:00N 18°03' W 063°06'0 0.0
2018-Mar-29 14:30N 18°03' W 063°06'0 0.0
2018-Mar-29 13:00N 18°03' W 063°06'0 0.0
2018-Mar-29 12:30N 18°03' W 063°06'0 0.0
2018-Mar-29 12:00N 18°03' W 063°06'0 0.0
2018-Mar-29 11:30N 18°03' W 063°06'0 0.0
2018-Mar-29 11:00N 18°03' W 063°06'0 0.0
2018-Mar-29 10:30N 18°03' W 063°06'0 0.0
2018-Mar-29 10:00N 18°03' W 063°06'0 0.0
2018-Mar-29 09:21N 18°03' W 063°06'0 0.0
2018-Mar-29 08:51N 18°03' W 063°06'0 0.0
2018-Mar-29 08:21N 18°03' W 063°06'0 0.0
2018-Mar-29 07:51N 18°03' W 063°06'0 0.0
2018-Mar-29 07:21N 18°03' W 063°06'0 0.0
2018-Mar-29 06:54N 18°03' W 063°06'0 0.0
2018-Mar-29 06:24N 18°03' W 063°06'0 0.0
2018-Mar-29 05:54N 18°03' W 063°06'0 0.0
2018-Mar-29 05:24N 18°03' W 063°06'0 0.0
2018-Mar-29 04:54N 18°03' W 063°06'0 0.0
2018-Mar-29 04:27N 18°03' W 063°06'0 0.0
2018-Mar-29 03:57N 18°03' W 063°06'0 0.0
2018-Mar-29 03:27N 18°03' W 063°06'0 0.0
2018-Mar-29 02:57N 18°03' W 063°06'0 0.0
2018-Mar-29 02:27N 18°03' W 063°06'0 0.0
2018-Mar-29 01:45N 18°03' W 063°06'0 0.0
2018-Mar-29 01:24N 18°03' W 063°06'0 0.0
2018-Mar-29 01:00N 18°03' W 063°06'0 0.0
2018-Mar-29 00:30N 18°03' W 063°06'0 0.0
2018-Mar-29 00:00N 18°03' W 063°06'0 0.0
2018-Mar-28 23:24N 18°03' W 063°06'0 0.0
2018-Mar-28 22:54N 18°03' W 063°06'0 0.0
2018-Mar-28 22:24N 18°03' W 063°06'0 0.0
2018-Mar-28 21:57N 18°03' W 063°06'0 0.0
2018-Mar-28 21:27N 18°03' W 063°06'0 0.0
2018-Mar-28 20:57N 18°03' W 063°06'0 0.0
2018-Mar-28 20:24N 18°03' W 063°06'0 0.3
2018-Mar-28 20:00N 18°03' W 063°06'0 0.2
2018-Mar-28 19:21N 18°03' W 063°06'0 0.0
2018-Mar-28 18:52N 18°03' W 063°06'0 0.0
2018-Mar-28 18:25N 18°03' W 063°06'0 0.0
2018-Mar-28 17:48N 18°03' W 063°06'0 0.0
2018-Mar-28 17:25N 18°03' W 063°06'0 0.0
2018-Mar-28 16:54N 18°03' W 063°06'0 0.0
2018-Mar-28 16:24N 18°03' W 063°06'0 0.0
2018-Mar-28 15:54N 18°03' W 063°06'0 0.0
2018-Mar-28 15:12N 18°03' W 063°06'0 0.0
2018-Mar-28 14:57N 18°03' W 063°06'0 0.0
2018-Mar-28 14:27N 18°03' W 063°06'0 0.0
2018-Mar-28 13:57N 18°03' W 063°06'0 0.0
2018-Mar-28 13:27N 18°03' W 063°06'0 0.0
2018-Mar-28 13:00N 18°03' W 063°06'0 0.0
2018-Mar-28 12:30N 18°03' W 063°06'0 0.0
2018-Mar-28 12:01N 18°03' W 063°06'0 0.0
2018-Mar-28 11:27N 18°03' W 063°06'0 0.0
2018-Mar-28 11:01N 18°03' W 063°06'0 0.0
2018-Mar-28 10:27N 18°03' W 063°06'0 0.0
2018-Mar-28 09:57N 18°03' W 063°06'0 0.0
2018-Mar-28 09:30N 18°03' W 063°06'0 0.0
2018-Mar-28 09:00N 18°03' W 063°06'0 0.0
2018-Mar-28 08:31N 18°03' W 063°06'0 0.0
2018-Mar-28 07:49N 18°03' W 063°06'0 0.0
2018-Mar-28 07:22N 18°03' W 063°06'0 0.0
2018-Mar-28 06:49N 18°03' W 063°06'0 0.0
2018-Mar-28 06:18N 18°03' W 063°06'0 0.0
2018-Mar-28 05:52N 18°03' W 063°06'0 0.0
2018-Mar-28 05:22N 18°03' W 063°06'0 0.0
2018-Mar-28 04:49N 18°03' W 063°06'0 0.0
2018-Mar-28 04:10N 18°03' W 063°06'0 0.0
2018-Mar-28 03:55N 18°03' W 063°06'0 0.0
2018-Mar-28 03:25N 18°03' W 063°06'0 0.0
2018-Mar-28 02:37N 18°03' W 063°06'0 0.0
2018-Mar-28 02:25N 18°03' W 063°06'0 0.0
2018-Mar-28 01:58N 18°03' W 063°06'0 0.0
2018-Mar-28 01:27N 18°03' W 063°06'0 0.0
2018-Mar-28 00:58N 18°03' W 063°06'0 0.0
2018-Mar-28 00:27N 18°03' W 063°06'0 0.0
2018-Mar-27 23:58N 18°03' W 063°06'0 0.0
2018-Mar-27 23:27N 18°03' W 063°06'0 0.0
2018-Mar-27 22:57N 18°03' W 063°06'0 0.0
2018-Mar-27 22:30N 18°03' W 063°06'0 0.0
2018-Mar-27 22:00N 18°03' W 063°06'0 0.0
2018-Mar-27 21:30N 18°03' W 063°06'0 0.0
2018-Mar-27 20:57N 18°03' W 063°06'0 0.0
2018-Mar-27 20:28N 18°03' W 063°06'0 0.0
2018-Mar-27 19:57N 18°03' W 063°06'0 0.0
2018-Mar-27 19:18N 18°03' W 063°06'0 0.0
2018-Mar-27 19:00N 18°03' W 063°06'0 0.0
2018-Mar-27 18:19N 18°03' W 063°06'0 0.0
2018-Mar-27 17:49N 18°03' W 063°06'0 0.0
2018-Mar-27 17:30N 18°03' W 063°06'0 0.0
2018-Mar-27 16:51N 18°03' W 063°06'0 0.0
2018-Mar-27 16:21N 18°03' W 063°06'0 0.0
2018-Mar-27 15:51N 18°03' W 063°06'0 0.0
2018-Mar-27 15:25N 18°03' W 063°06'0 0.0
2018-Mar-27 14:54N 18°03' W 063°06'0 0.0
2018-Mar-27 14:25N 18°03' W 063°06'0 0.0
2018-Mar-27 13:54N 18°03' W 063°06'0 0.0
2018-Mar-27 13:25N 18°03' W 063°06'0 0.0
2018-Mar-27 12:55N 18°03' W 063°06'0 0.0
2018-Mar-27 12:25N 18°03' W 063°06'0 0.0
2018-Mar-27 11:57N 18°03' W 063°06'0 0.0
2018-Mar-27 11:25N 18°03' W 063°06'0 0.0
2018-Mar-27 10:57N 18°03' W 063°06'0 0.0
2018-Mar-27 10:25N 18°03' W 063°06'0 0.0
2018-Mar-27 09:43N 18°03' W 063°06'0 0.0
2018-Mar-27 09:28N 18°03' W 063°06'0 0.0
2018-Mar-27 09:00N 18°03' W 063°06'0 0.0
2018-Mar-27 08:28N 18°03' W 063°06'0 0.0
2018-Mar-27 07:58N 18°03' W 063°06'0 0.0
2018-Mar-27 07:27N 18°03' W 063°06'0 0.0
2018-Mar-27 06:46N 18°03' W 063°06'0 0.0
2018-Mar-27 06:30N 18°03' W 063°06'0 0.0
2018-Mar-27 05:49N 18°03' W 063°06'0 0.0
2018-Mar-27 05:19N 18°03' W 063°06'0 0.0
2018-Mar-27 05:00N 18°03' W 063°06'0 0.0
2018-Mar-27 04:18N 18°03' W 063°06'0 0.0
2018-Mar-27 04:00N 18°03' W 063°06'0 0.0
2018-Mar-27 03:18N 18°03' W 063°06'0 0.0
2018-Mar-27 02:51N 18°03' W 063°06'0 0.0
2018-Mar-27 02:21N 18°03' W 063°06'0 0.0
2018-Mar-27 01:55N 18°03' W 063°06'0 0.0
2018-Mar-27 01:25N 18°03' W 063°06'0 0.0
2018-Mar-27 00:55N 18°03' W 063°06'0 0.0
2018-Mar-27 00:24N 18°03' W 063°06'0 0.0
2018-Mar-26 23:55N 18°03' W 063°06'0 0.0
2018-Mar-26 23:24N 18°03' W 063°06'0 0.0
2018-Mar-26 22:55N 18°03' W 063°06'0 0.0
2018-Mar-26 22:28N 18°03' W 063°06'0 0.0
2018-Mar-26 21:58N 18°03' W 063°06'0 0.0
2018-Mar-26 21:25N 18°03' W 063°06'0 0.0
2018-Mar-26 20:43N 18°03' W 063°06'0 0.0
2018-Mar-26 20:28N 18°03' W 063°06'0 0.0
2018-Mar-26 19:55N 18°03' W 063°06'0 0.0
2018-Mar-26 19:01N 18°03' W 063°06'0 0.0
2018-Mar-26 18:46N 18°03' W 063°06'0 0.0
2018-Mar-26 18:28N 18°03' W 063°06'0 0.0
2018-Mar-26 17:49N 18°03' W 063°06'0 0.0
2018-Mar-26 17:27N 18°03' W 063°06'0 0.0
2018-Mar-26 16:58N 18°03' W 063°06'0 0.0
2018-Mar-26 16:31N 18°03' W 063°06'0 0.0
2018-Mar-26 15:49N 18°03' W 063°06'0 0.0
2018-Mar-26 15:19N 18°03' W 063°06'0 0.0
2018-Mar-26 14:49N 18°03' W 063°06'0 0.0
2018-Mar-26 14:30N 18°03' W 063°06'0 0.0
2018-Mar-26 13:37N 18°03' W 063°06'0 0.0
2018-Mar-26 13:19N 18°03' W 063°06'0 0.0
2018-Mar-26 12:52N 18°03' W 063°06'0 0.0
2018-Mar-26 12:25N 18°03' W 063°06'0 0.0
2018-Mar-26 11:39N 18°03' W 063°06'0 0.0
2018-Mar-26 11:25N 18°03' W 063°06'0 0.0
2018-Mar-26 10:55N 18°03' W 063°06'0 0.0
2018-Mar-26 10:21N 18°03' W 063°06'0 0.0
2018-Mar-26 09:55N 18°03' W 063°06'0 0.0
2018-Mar-26 09:24N 18°03' W 063°06'0 0.0
2018-Mar-26 08:55N 18°03' W 063°06'0 0.0
2018-Mar-26 08:25N 18°03' W 063°06'0 0.0
2018-Mar-26 07:55N 18°03' W 063°06'0 0.0
2018-Mar-26 07:25N 18°03' W 063°06'0 0.0
2018-Mar-26 06:55N 18°03' W 063°06'0 0.0
2018-Mar-26 06:28N 18°03' W 063°06'0 0.0
2018-Mar-26 05:54N 18°03' W 063°06'0 0.0
2018-Mar-26 05:27N 18°03' W 063°06'0 0.0
2018-Mar-26 04:43N 18°03' W 063°06'0 0.0
2018-Mar-26 04:30N 18°03' W 063°06'0 0.0
2018-Mar-26 03:48N 18°03' W 063°06'0 0.0
2018-Mar-26 03:28N 18°03' W 063°06'0 0.0
2018-Mar-26 02:49N 18°03' W 063°06'0 0.0
2018-Mar-26 02:18N 18°03' W 063°06'0 0.0
2018-Mar-26 01:49N 18°03' W 063°06'0 0.0
2018-Mar-26 01:16N 18°03' W 063°06'0 0.0
2018-Mar-26 00:52N 18°03' W 063°06'0 0.0
2018-Mar-26 00:30N 18°03' W 063°06'0 0.0
2018-Mar-25 23:52N 18°03' W 063°06'0 0.0
2018-Mar-25 23:19N 18°03' W 063°06'0 0.0
2018-Mar-25 22:51N 18°03' W 063°06'0 0.0
2018-Mar-25 22:25N 18°03' W 063°06'0 0.0
2018-Mar-25 21:55N 18°03' W 063°06'0 0.0
2018-Mar-25 21:25N 18°03' W 063°06'0 0.0
2018-Mar-25 19:54N 18°03' W 063°06'0 0.0
2018-Mar-25 19:28N 18°03' W 063°06'0 0.0
2018-Mar-25 18:58N 18°03' W 063°06'0 0.0
2018-Mar-25 18:25N 18°03' W 063°06'0 0.0
2018-Mar-25 17:55N 18°03' W 063°06'0 0.0
2018-Mar-25 17:25N 18°03' W 063°06'0 0.0
2018-Mar-25 17:01N 18°03' W 063°06'0 0.0
2018-Mar-25 16:25N 18°03' W 063°06'0 0.0
2018-Mar-25 15:46N 18°03' W 063°06'0 0.0
2018-Mar-25 15:13N 18°03' W 063°06'0 0.0
2018-Mar-25 14:45N 18°03' W 063°06'0 0.0
2018-Mar-25 14:18N 18°03' W 063°06'0 0.0
2018-Mar-25 13:58N 18°03' W 063°06'0 0.0
2018-Mar-25 13:28N 18°03' W 063°06'0 0.0
2018-Mar-25 13:01N 18°03' W 063°06'0 0.0
2018-Mar-25 12:30N 18°03' W 063°06'0 0.0
2018-Mar-25 12:00N 18°03' W 063°06'0 0.0
2018-Mar-25 11:19N 18°03' W 063°06'0 0.0
2018-Mar-25 10:49N 18°03' W 063°06'0 0.0
2018-Mar-25 10:22N 18°03' W 063°06'0 0.0
2018-Mar-25 09:51N 18°03' W 063°06'0 0.0
2018-Mar-25 09:21N 18°03' W 063°06'0 0.0
2018-Mar-25 08:54N 18°03' W 063°06'0 0.0
2018-Mar-25 08:25N 18°03' W 063°06'0 0.0
2018-Mar-25 07:54N 18°03' W 063°06'0 0.0
2018-Mar-25 07:22N 18°03' W 063°06'0 0.0
2018-Mar-25 06:55N 18°03' W 063°06'0 0.0
2018-Mar-25 06:25N 18°03' W 063°06'0 0.0
2018-Mar-25 05:58N 18°03' W 063°06'0 0.0
2018-Mar-25 05:21N 18°03' W 063°06'0 0.0
2018-Mar-25 04:57N 18°03' W 063°06'0 0.0
2018-Mar-25 04:24N 18°03' W 063°06'0 0.0
2018-Mar-25 03:55N 18°03' W 063°06'0 0.0
2018-Mar-25 03:31N 18°03' W 063°06'0 0.0
2018-Mar-25 03:00N 18°03' W 063°06'0 0.0
2018-Mar-25 02:28N 18°03' W 063°06'0 0.0
2018-Mar-25 01:58N 18°03' W 063°06'0 0.0
2018-Mar-25 01:12N 18°03' W 063°06'0 0.0
2018-Mar-25 00:46N 18°03' W 063°06'0 0.0
2018-Mar-25 00:18N 18°03' W 063°06'0 0.0
2018-Mar-25 00:01N 18°03' W 063°06'0 0.0
2018-Mar-24 23:19N 18°03' W 063°06'0 0.0
2018-Mar-24 22:49N 18°03' W 063°06'0 0.0
2018-Mar-24 22:22N 18°03' W 063°06'0 0.0
2018-Mar-24 22:01N 18°03' W 063°06'0 0.0
2018-Mar-24 21:19N 18°03' W 063°06'0 0.0
2018-Mar-24 20:36N 18°03' W 063°06'0 0.0
2018-Mar-24 20:22N 18°03' W 063°06'0 0.0
2018-Mar-24 19:52N 18°03' W 063°06'0 0.0
2018-Mar-24 19:25N 18°03' W 063°06'0 0.0
2018-Mar-24 18:54N 18°03' W 063°06'0 0.0
2018-Mar-24 18:25N 18°03' W 063°06'0 0.0
2018-Mar-24 17:55N 18°03' W 063°06'0 0.0
2018-Mar-24 17:25N 18°03' W 063°06'0 0.0
2018-Mar-24 16:55N 18°03' W 063°06'0 0.0
2018-Mar-24 16:25N 18°03' W 063°06'0 0.0
2018-Mar-24 15:54N 18°03' W 063°06'0 0.0
2018-Mar-24 15:27N 18°03' W 063°06'0 0.0
2018-Mar-24 14:58N 18°03' W 063°06'0 0.0
2018-Mar-24 14:25N 18°03' W 063°06'0 0.0
2018-Mar-24 13:58N 18°03' W 063°06'0 0.0
2018-Mar-24 13:31N 18°03' W 063°06'0 0.0
2018-Mar-24 13:00N 18°03' W 063°06'0 0.0
2018-Mar-24 12:12N 18°03' W 063°06'0 0.0
2018-Mar-24 12:00N 18°03' W 063°06'0 0.0
2018-Mar-24 11:28N 18°03' W 063°06'0 0.0
2018-Mar-24 10:58N 18°03' W 063°06'0 0.0
2018-Mar-24 10:31N 18°03' W 063°06'0 0.0
2018-Mar-24 09:49N 18°03' W 063°06'0 0.0
2018-Mar-24 09:19N 18°03' W 063°06'0 0.0
2018-Mar-24 08:48N 18°03' W 063°06'0 0.0
2018-Mar-24 08:30N 18°03' W 063°06'0 0.0
2018-Mar-24 08:00N 18°03' W 063°06'0 0.0
2018-Mar-24 07:30N 18°03' W 063°06'0 0.0
2018-Mar-24 06:49N 18°03' W 063°06'0 0.0
2018-Mar-24 06:19N 18°03' W 063°06'0 0.0
2018-Mar-24 05:52N 18°03' W 063°06'0 0.0
2018-Mar-24 05:25N 18°03' W 063°06'0 0.0
2018-Mar-24 04:55N 18°03' W 063°06'0 0.0
2018-Mar-24 04:25N 18°03' W 063°06'0 0.0
2018-Mar-24 03:55N 18°03' W 063°06'0 0.0
2018-Mar-24 03:25N 18°03' W 063°06'0 0.0
2018-Mar-24 02:58N 18°03' W 063°06'0 0.0
2018-Mar-24 02:27N 18°03' W 063°06'0 0.0
2018-Mar-24 01:55N 18°03' W 063°06'0 0.0
2018-Mar-24 01:27N 18°03' W 063°06'0 0.0
2018-Mar-24 00:58N 18°03' W 063°06'0 0.0
2018-Mar-24 00:31N 18°03' W 063°06'0 0.0
2018-Mar-23 23:58N 18°03' W 063°06'0 0.0
2018-Mar-23 23:13N 18°03' W 063°06'0 0.0
2018-Mar-23 23:00N 18°03' W 063°06'0 0.0
2018-Mar-23 22:13N 18°03' W 063°06'0 0.0
2018-Mar-23 22:00N 18°03' W 063°06'0 0.0
2018-Mar-23 21:19N 18°03' W 063°06'0 0.0
2018-Mar-23 21:00N 18°03' W 063°06'0 0.0
2018-Mar-23 20:19N 18°03' W 063°06'0 0.0
2018-Mar-23 19:49N 18°03' W 063°06'0 0.0
2018-Mar-23 19:19N 18°03' W 063°06'0 0.0
2018-Mar-23 19:00N 18°03' W 063°06'0 0.0
2018-Mar-23 18:19N 18°03' W 063°06'0 0.0
2018-Mar-23 17:49N 18°03' W 063°06'0 0.0
2018-Mar-23 17:22N 18°03' W 063°06'0 0.0
2018-Mar-23 16:51N 18°03' W 063°06'0 0.0
2018-Mar-23 16:22N 18°03' W 063°06'0 0.0
2018-Mar-23 15:55N 18°03' W 063°06'0 0.0
2018-Mar-23 15:25N 18°03' W 063°06'0 0.0
2018-Mar-23 14:55N 18°03' W 063°06'0 0.0
2018-Mar-23 14:25N 18°03' W 063°06'0 0.0
2018-Mar-23 13:55N 18°03' W 063°06'0 0.0
2018-Mar-23 13:25N 18°03' W 063°06'0 0.0
2018-Mar-23 12:58N 18°03' W 063°06'0 0.0
2018-Mar-23 12:25N 18°03' W 063°06'0 0.0
2018-Mar-23 11:58N 18°03' W 063°06'0 0.0
2018-Mar-23 11:28N 18°03' W 063°06'0 0.0
2018-Mar-23 10:57N 18°03' W 063°06'0 0.0
2018-Mar-23 10:12N 18°03' W 063°06'0 0.0
2018-Mar-23 10:01N 18°03' W 063°06'0 0.0
2018-Mar-23 09:28N 18°03' W 063°06'0 0.0
2018-Mar-23 08:31N 18°03' W 063°06'0 0.1
2018-Mar-23 08:28N 18°03' W 063°06'0 0.0
2018-Mar-23 07:58N 18°03' W 063°06'0 0.0
2018-Mar-23 07:30N 18°03' W 063°06'0 0.0
2018-Mar-23 06:46N 18°03' W 063°06'0 0.0
2018-Mar-23 06:18N 18°03' W 063°06'0 0.0
2018-Mar-23 05:49N 18°03' W 063°06'0 0.0
2018-Mar-23 05:19N 18°03' W 063°06'0 0.0
2018-Mar-23 05:00N 18°03' W 063°06'0 0.0
2018-Mar-23 04:22N 18°03' W 063°06'0 0.0
2018-Mar-23 03:49N 18°03' W 063°06'0 0.0
2018-Mar-23 03:22N 18°03' W 063°06'0 0.0
2018-Mar-23 02:48N 18°03' W 063°06'0 0.0
2018-Mar-23 02:09N 18°03' W 063°06'0 0.0
2018-Mar-23 01:48N 18°03' W 063°06'0 0.0
2018-Mar-23 01:25N 18°03' W 063°06'0 0.0
2018-Mar-23 00:55N 18°03' W 063°06'0 0.0
2018-Mar-23 00:25N 18°03' W 063°06'0 0.0
2018-Mar-22 23:54N 18°03' W 063°06'0 0.0
2018-Mar-22 23:24N 18°03' W 063°06'0 0.0
2018-Mar-22 22:57N 18°03' W 063°06'0 0.0
2018-Mar-22 22:28N 18°03' W 063°06'0 0.0
2018-Mar-22 21:58N 18°03' W 063°06'0 0.0
2018-Mar-22 21:27N 18°03' W 063°06'0 0.0
2018-Mar-22 20:54N 18°03' W 063°06'0 0.0
2018-Mar-22 20:24N 18°03' W 063°06'0 0.0
2018-Mar-22 20:00N 18°03' W 063°06'0 0.0
2018-Mar-22 19:12N 18°03' W 063°06'0 0.0
2018-Mar-22 18:43N 18°03' W 063°06'0 0.0
2018-Mar-22 18:28N 18°03' W 063°06'0 0.0
2018-Mar-22 17:58N 18°03' W 063°06'0 0.0
2018-Mar-22 17:31N 18°03' W 063°06'0 0.0
2018-Mar-22 16:49N 18°03' W 063°06'0 0.0
2018-Mar-22 16:19N 18°03' W 063°06'0 0.0
2018-Mar-22 16:00N 18°03' W 063°06'0 0.0
2018-Mar-22 15:31N 18°03' W 063°06'0 0.0
2018-Mar-22 15:00N 18°03' W 063°06'0 0.0
2018-Mar-22 14:22N 18°03' W 063°06'0 0.0
2018-Mar-22 13:49N 18°03' W 063°06'0 0.0
2018-Mar-22 13:22N 18°03' W 063°06'0 0.0
2018-Mar-22 12:54N 18°03' W 063°06'0 0.0
2018-Mar-22 12:25N 18°03' W 063°06'0 0.0
2018-Mar-22 11:55N 18°03' W 063°06'0 0.0
2018-Mar-22 11:25N 18°03' W 063°06'0 0.0
2018-Mar-22 10:55N 18°03' W 063°06'0 0.0
2018-Mar-22 10:25N 18°03' W 063°06'0 0.0
2018-Mar-22 09:58N 18°03' W 063°06'0 0.0
2018-Mar-22 09:28N 18°03' W 063°06'0 0.0
2018-Mar-22 08:58N 18°03' W 063°06'0 0.0
2018-Mar-22 08:13N 18°03' W 063°06'0 0.0
2018-Mar-22 07:57N 18°03' W 063°06'0 0.0
2018-Mar-22 07:28N 18°03' W 063°06'0 0.0
2018-Mar-22 06:58N 18°03' W 063°06'0 0.0
2018-Mar-22 06:30N 18°03' W 063°06'0 0.0
2018-Mar-22 06:00N 18°03' W 063°06'0 0.0
2018-Mar-22 05:27N 18°03' W 063°06'0 0.0
2018-Mar-22 04:58N 18°03' W 063°06'0 0.0
2018-Mar-22 04:30N 18°03' W 063°06'0 0.0
2018-Mar-22 03:58N 18°03' W 063°06'0 0.0
2018-Mar-22 03:31N 18°03' W 063°06'0 0.0
2018-Mar-22 03:00N 18°03' W 063°06'0 0.0
2018-Mar-22 02:18N 18°03' W 063°06'0 0.0
2018-Mar-22 02:00N 18°03' W 063°06'0 0.0
2018-Mar-22 01:18N 18°03' W 063°06'0 0.0
2018-Mar-22 00:51N 18°03' W 063°06'0 0.0
2018-Mar-22 00:06N 18°03' W 063°06'0 0.0
2018-Mar-21 23:52N 18°03' W 063°06'0 0.0
2018-Mar-21 23:18N 18°03' W 063°06'0 0.0
2018-Mar-21 22:54N 18°03' W 063°06'0 0.0
2018-Mar-21 00:00N 18°03' W 063°06'0 0.0
2018-Mar-20 23:30N 18°03' W 063°06'0 0.0
2018-Mar-20 22:51N 18°03' W 063°06'0 0.0
2018-Mar-20 22:18N 18°03' W 063°06'0 0.0
2018-Mar-20 21:54N 18°03' W 063°06'0 0.0
2018-Mar-20 21:18N 18°03' W 063°06'0 0.0
2018-Mar-20 20:54N 18°03' W 063°06'0 0.0
2018-Mar-20 20:24N 18°03' W 063°06'0 0.0
2018-Mar-20 19:54N 18°03' W 063°06'0 0.0
2018-Mar-20 19:24N 18°03' W 063°06'0 0.0
2018-Mar-20 18:42N 18°03' W 063°06'0 0.0
2018-Mar-20 18:24N 18°03' W 063°06'0 0.0
2018-Mar-20 17:42N 18°03' W 063°06'0 0.0
2018-Mar-20 17:27N 18°03' W 063°06'0 0.0
2018-Mar-20 16:54N 18°03' W 063°06'0 0.0
2018-Mar-20 16:30N 18°03' W 063°06'0 0.0
2018-Mar-20 16:00N 18°03' W 063°06'0 0.0
2018-Mar-20 15:30N 18°03' W 063°06'0 0.0
2018-Mar-20 14:42N 18°03' W 063°06'0 0.0
2018-Mar-20 14:15N 18°03' W 063°06'0 0.0
2018-Mar-20 14:00N 18°03' W 063°06'0 0.0
2018-Mar-20 13:30N 18°03' W 063°06'0 0.0
2018-Mar-20 13:00N 18°03' W 063°06'0 0.0
2018-Mar-20 12:30N 18°03' W 063°06'0 0.0
2018-Mar-20 12:00N 18°03' W 063°06'0 0.0
2018-Mar-20 11:18N 18°03' W 063°06'0 0.0
2018-Mar-20 11:00N 18°03' W 063°06'0 0.0
2018-Mar-20 10:30N 18°03' W 063°06'0 0.0
2018-Mar-20 09:48N 18°03' W 063°06'0 0.0
2018-Mar-20 09:03N 18°03' W 063°06'0 0.0
2018-Mar-20 08:48N 18°03' W 063°06'0 0.0
2018-Mar-20 08:21N 18°03' W 063°06'0 0.0
2018-Mar-20 07:54N 18°03' W 063°06'0 0.0
2018-Mar-20 07:24N 18°03' W 063°06'0 0.0
2018-Mar-20 06:54N 18°03' W 063°06'0 0.0
2018-Mar-20 06:24N 18°03' W 063°06'0 0.0
2018-Mar-20 05:57N 18°03' W 063°06'0 0.0
2018-Mar-20 05:27N 18°03' W 063°06'0 0.0
2018-Mar-20 04:54N 18°03' W 063°06'0 0.0
2018-Mar-20 04:27N 18°03' W 063°06'0 0.0
2018-Mar-20 03:54N 18°03' W 063°06'0 0.0
2018-Mar-20 03:27N 18°03' W 063°06'0 0.0
2018-Mar-20 03:00N 18°03' W 063°06'0 0.0
2018-Mar-20 02:30N 18°03' W 063°06'0 0.0
2018-Mar-20 02:00N 18°03' W 063°06'0 0.0
2018-Mar-20 01:30N 18°03' W 063°06'  

Dump ship's entire track history